createdAt,value
2023-01-09T00:00:09.459Z,10.3
2023-01-09T00:01:17.808Z,10.3
2023-01-09T00:02:26.438Z,9.4
2023-01-09T00:03:34.796Z,9.4
2023-01-09T00:04:43.106Z,9.4
2023-01-09T00:05:51.697Z,10.8
2023-01-09T00:07:00.084Z,10.8
2023-01-09T00:08:08.485Z,10.8
2023-01-09T00:09:17.034Z,9.4
2023-01-09T00:10:25.445Z,9.4
2023-01-09T00:11:33.814Z,9.4
2023-01-09T00:12:42.410Z,9
2023-01-09T00:13:50.740Z,9
2023-01-09T00:14:59.104Z,9
2023-01-09T00:16:07.653Z,9.4
2023-01-09T00:17:16.035Z,9.4
2023-01-09T00:18:24.405Z,9.4
2023-01-09T00:19:32.978Z,8.6
2023-01-09T00:20:41.320Z,8.6
2023-01-09T00:21:49.697Z,8.6
2023-01-09T00:22:58.258Z,7.6
2023-01-09T00:24:06.664Z,7.6
2023-01-09T00:25:14.984Z,7.6
2023-01-09T00:26:23.581Z,7.8
2023-01-09T00:27:31.937Z,7.8
2023-01-09T00:28:40.313Z,7.8
2023-01-09T00:29:48.896Z,7.6
2023-01-09T00:30:57.358Z,7.6
2023-01-09T00:32:05.633Z,7.6
2023-01-09T00:33:14.224Z,8.8
2023-01-09T00:34:22.591Z,8.8
2023-01-09T00:35:30.958Z,8.8
2023-01-09T00:36:39.525Z,8.8
2023-01-09T00:37:47.912Z,8.8
2023-01-09T00:38:56.260Z,8.8
2023-01-09T00:40:04.872Z,7.8
2023-01-09T00:41:13.201Z,7.8
2023-01-09T00:42:21.564Z,7.8
2023-01-09T00:43:30.165Z,7.5
2023-01-09T00:44:38.496Z,7.5
2023-01-09T00:45:46.935Z,7.5
2023-01-09T00:46:55.547Z,7.7
2023-01-09T00:48:03.916Z,7.7
2023-01-09T00:49:12.321Z,7.7
2023-01-09T00:50:20.934Z,8.1
2023-01-09T00:51:29.240Z,8.1
2023-01-09T00:52:37.613Z,8.1
2023-01-09T00:53:46.208Z,8.1
2023-01-09T00:54:54.587Z,8.1
2023-01-09T00:56:02.955Z,8.1
2023-01-09T00:57:11.567Z,8.5
2023-01-09T00:58:19.908Z,8.5
2023-01-09T00:59:28.292Z,8.5
2023-01-09T01:00:36.828Z,8.9
2023-01-09T01:01:45.361Z,8.9
2023-01-09T01:02:53.600Z,8.9
2023-01-09T01:04:02.165Z,8
2023-01-09T01:05:10.507Z,8
2023-01-09T01:06:18.869Z,8
2023-01-09T01:07:27.459Z,7.7
2023-01-09T01:08:35.839Z,7.7
2023-01-09T01:09:44.189Z,7.7
2023-01-09T01:10:52.773Z,7.6
2023-01-09T01:12:01.145Z,7.6
2023-01-09T01:13:09.519Z,7.6
2023-01-09T01:14:18.093Z,8.4
2023-01-09T01:15:26.449Z,8.4
2023-01-09T01:16:34.824Z,8.4
2023-01-09T01:17:43.388Z,8.1
2023-01-09T01:18:51.759Z,8.1
2023-01-09T01:20:00.119Z,8.1
2023-01-09T01:21:08.686Z,8.1
2023-01-09T01:22:17.032Z,8.1
2023-01-09T01:23:25.402Z,8.1
2023-01-09T01:24:33.951Z,6.9
2023-01-09T01:25:42.305Z,6.9
2023-01-09T01:26:50.656Z,6.9
2023-01-09T01:27:59.240Z,6.8
2023-01-09T01:29:07.575Z,6.8
2023-01-09T01:30:15.952Z,6.8
2023-01-09T01:31:24.515Z,6.8
2023-01-09T01:32:32.897Z,6.8
2023-01-09T01:33:41.251Z,6.8
2023-01-09T01:34:49.798Z,7.6
2023-01-09T01:35:58.164Z,7.6
2023-01-09T01:37:06.529Z,7.6
2023-01-09T01:38:15.084Z,7.1
2023-01-09T01:39:23.451Z,7.1
2023-01-09T01:40:31.828Z,7.1
2023-01-09T01:41:40.374Z,7
2023-01-09T01:42:48.783Z,7
2023-01-09T01:43:57.181Z,7
2023-01-09T01:45:05.700Z,6.3
2023-01-09T01:46:14.148Z,6.3
2023-01-09T01:47:22.408Z,6.3
2023-01-09T01:48:30.980Z,4.4
2023-01-09T01:49:39.345Z,4.4
2023-01-09T01:50:47.693Z,4.4
2023-01-09T01:51:56.241Z,5.5
2023-01-09T01:53:04.630Z,5.5
2023-01-09T01:54:12.953Z,5.5
2023-01-09T01:55:21.537Z,5.5
2023-01-09T01:56:29.865Z,5.5
2023-01-09T01:57:38.259Z,5.5
2023-01-09T01:58:46.852Z,5
2023-01-09T01:59:55.237Z,5
2023-01-09T02:01:03.690Z,5
2023-01-09T02:02:12.239Z,4.5
2023-01-09T02:03:20.499Z,4.5
2023-01-09T02:04:28.867Z,4.5
2023-01-09T02:05:37.453Z,4.6
2023-01-09T02:06:45.807Z,4.6
2023-01-09T02:07:54.194Z,4.6
2023-01-09T02:09:02.760Z,4.2
2023-01-09T02:10:11.124Z,4.2
2023-01-09T02:11:19.470Z,4.2
2023-01-09T02:12:28.090Z,4.6
2023-01-09T02:13:36.398Z,4.6
2023-01-09T02:14:44.754Z,4.6
2023-01-09T02:15:53.396Z,4.3
2023-01-09T02:17:01.675Z,4.3
2023-01-09T02:18:10.050Z,4.3
2023-01-09T02:19:18.603Z,4.1
2023-01-09T02:20:26.953Z,4.1
2023-01-09T02:21:35.347Z,4.1
2023-01-09T02:22:43.900Z,4.6
2023-01-09T02:23:52.253Z,4.6
2023-01-09T02:25:00.626Z,4.6
2023-01-09T02:26:09.188Z,4.1
2023-01-09T02:27:17.549Z,4.1
2023-01-09T02:28:25.915Z,4.1
2023-01-09T02:29:34.496Z,4.2
2023-01-09T02:30:42.851Z,4.2
2023-01-09T02:31:51.267Z,4.2
2023-01-09T02:32:59.765Z,4.3
2023-01-09T02:34:08.118Z,4.3
2023-01-09T02:35:16.474Z,4.3
2023-01-09T02:36:25.037Z,4.4
2023-01-09T02:37:33.407Z,4.4
2023-01-09T02:38:41.780Z,4.4
2023-01-09T02:39:50.361Z,3.7
2023-01-09T02:40:58.711Z,3.7
2023-01-09T02:42:07.087Z,3.7
2023-01-09T02:43:15.670Z,3.7
2023-01-09T02:44:24.022Z,3.7
2023-01-09T02:45:32.425Z,3.7
2023-01-09T02:46:40.956Z,3.3
2023-01-09T02:47:49.343Z,3.3
2023-01-09T02:48:57.646Z,3.3
2023-01-09T02:50:06.215Z,3.4
2023-01-09T02:51:14.577Z,3.4
2023-01-09T02:52:22.970Z,3.4
2023-01-09T02:53:31.526Z,3.3
2023-01-09T02:54:39.864Z,3.3
2023-01-09T02:55:48.233Z,3.3
2023-01-09T02:56:56.842Z,2.6
2023-01-09T02:58:05.208Z,2.6
2023-01-09T02:59:13.564Z,2.6
2023-01-09T03:00:22.142Z,2.8
2023-01-09T03:01:30.649Z,2.8
2023-01-09T03:02:38.929Z,2.8
2023-01-09T03:03:47.479Z,2.8
2023-01-09T03:04:55.822Z,2.8
2023-01-09T03:06:04.189Z,2.8
2023-01-09T03:07:12.755Z,4
2023-01-09T03:08:21.113Z,4
2023-01-09T03:09:29.471Z,4
2023-01-09T03:10:38.076Z,3
2023-01-09T03:11:46.404Z,3
2023-01-09T03:12:54.793Z,3
2023-01-09T03:14:03.345Z,2.8
2023-01-09T03:15:11.688Z,2.8
2023-01-09T03:16:20.109Z,2.8
2023-01-09T03:17:28.636Z,2.7
2023-01-09T03:18:36.980Z,2.7
2023-01-09T03:19:45.364Z,2.7
2023-01-09T03:20:53.924Z,2.5
2023-01-09T03:22:02.285Z,2.5
2023-01-09T03:23:10.629Z,2.5
2023-01-09T03:24:19.199Z,2.8
2023-01-09T03:25:27.586Z,2.8
2023-01-09T03:26:35.943Z,2.8
2023-01-09T03:27:44.540Z,3
2023-01-09T03:28:52.865Z,3
2023-01-09T03:30:01.258Z,3
2023-01-09T03:31:09.846Z,2.4
2023-01-09T03:32:18.165Z,2.4
2023-01-09T03:33:26.523Z,2.4
2023-01-09T03:34:35.161Z,3.1
2023-01-09T03:35:43.568Z,3.1
2023-01-09T03:36:51.926Z,3.1
2023-01-09T03:38:00.531Z,2.5
2023-01-09T03:39:08.896Z,2.5
2023-01-09T03:40:17.263Z,2.5
2023-01-09T03:41:25.868Z,3.3
2023-01-09T03:42:34.246Z,3.3
2023-01-09T03:43:42.637Z,3.3
2023-01-09T03:44:51.200Z,3.1
2023-01-09T03:45:59.697Z,3.1
2023-01-09T03:47:08.047Z,3.1
2023-01-09T03:48:16.501Z,3.5
2023-01-09T03:49:25.874Z,3.5
2023-01-09T03:50:34.273Z,3.5
2023-01-09T03:51:42.893Z,3.1
2023-01-09T03:52:51.247Z,3.1
2023-01-09T03:53:59.612Z,3.1
2023-01-09T03:55:08.192Z,3.4
2023-01-09T03:56:16.539Z,3.4
2023-01-09T03:57:24.915Z,3.4
2023-01-09T03:58:33.466Z,3.1
2023-01-09T03:59:41.825Z,3.1
2023-01-09T04:00:50.283Z,3.1
2023-01-09T04:01:58.934Z,2.8
2023-01-09T04:03:07.159Z,2.8
2023-01-09T04:04:15.618Z,2.8
2023-01-09T04:05:24.191Z,3.6
2023-01-09T04:06:32.562Z,3.6
2023-01-09T04:07:40.949Z,3.6
2023-01-09T04:08:49.477Z,2.7
2023-01-09T04:09:57.856Z,2.7
2023-01-09T04:11:06.237Z,2.7
2023-01-09T04:12:14.811Z,3.4
2023-01-09T04:13:23.197Z,3.4
2023-01-09T04:14:31.579Z,3.4
2023-01-09T04:15:40.217Z,3.1
2023-01-09T04:16:48.616Z,3.1
2023-01-09T04:17:57.046Z,3.1
2023-01-09T04:19:05.601Z,3.1
2023-01-09T04:20:13.992Z,3.1
2023-01-09T04:21:22.345Z,3.1
2023-01-09T04:22:30.899Z,3.3
2023-01-09T04:23:39.280Z,3.3
2023-01-09T04:24:47.629Z,3.3
2023-01-09T04:25:56.205Z,4.2
2023-01-09T04:27:04.602Z,4.2
2023-01-09T04:28:12.960Z,4.2
2023-01-09T04:29:21.510Z,3.3
2023-01-09T04:30:29.869Z,3.3
2023-01-09T04:31:38.316Z,3.3
2023-01-09T04:32:46.880Z,3.8
2023-01-09T04:33:55.376Z,3.8
2023-01-09T04:35:03.742Z,3.8
2023-01-09T04:36:12.294Z,3.8
2023-01-09T04:37:20.656Z,3.8
2023-01-09T04:38:29.029Z,3.8
2023-01-09T04:39:37.652Z,4.4
2023-01-09T04:40:45.958Z,4.4
2023-01-09T04:41:54.310Z,4.4
2023-01-09T04:43:02.859Z,4
2023-01-09T04:44:11.228Z,4
2023-01-09T04:45:19.571Z,4
2023-01-09T04:46:28.124Z,4
2023-01-09T04:47:36.475Z,4
2023-01-09T04:48:44.809Z,4
2023-01-09T04:49:53.378Z,4.4
2023-01-09T04:51:01.722Z,4.4
2023-01-09T04:52:10.070Z,4.4
2023-01-09T04:53:18.613Z,3.8
2023-01-09T04:54:26.957Z,3.8
2023-01-09T04:55:35.325Z,3.8
2023-01-09T04:56:43.840Z,4.1
2023-01-09T04:57:52.178Z,4.1
2023-01-09T04:59:00.523Z,4.1
2023-01-09T05:00:09.072Z,4.4
2023-01-09T05:01:17.547Z,4.4
2023-01-09T05:02:25.771Z,4.4
2023-01-09T05:03:34.316Z,4.5
2023-01-09T05:04:42.658Z,4.5
2023-01-09T05:05:51.007Z,4.5
2023-01-09T05:06:59.548Z,4.9
2023-01-09T05:08:07.901Z,4.9
2023-01-09T05:09:16.253Z,4.9
2023-01-09T05:10:24.810Z,21.799999
2023-01-09T05:11:33.202Z,21.799999
2023-01-09T05:12:41.520Z,21.799999
2023-01-09T05:13:50.069Z,6.5
2023-01-09T05:14:58.427Z,6.5
2023-01-09T05:16:06.789Z,6.5
2023-01-09T05:17:15.346Z,5
2023-01-09T05:18:23.671Z,5
2023-01-09T05:19:32.031Z,5
2023-01-09T05:20:40.590Z,5.2
2023-01-09T05:21:48.915Z,5.2
2023-01-09T05:22:57.255Z,5.2
2023-01-09T05:24:05.821Z,5.5
2023-01-09T05:25:14.185Z,5.5
2023-01-09T05:26:22.516Z,5.5
2023-01-09T05:27:31.099Z,4.9
2023-01-09T05:28:39.422Z,4.9
2023-01-09T05:29:47.783Z,4.9
2023-01-09T05:30:56.348Z,9.3
2023-01-09T05:32:04.691Z,9.3
2023-01-09T05:33:13.033Z,9.3
2023-01-09T05:34:21.598Z,5.1
2023-01-09T05:35:29.963Z,5.1
2023-01-09T05:36:38.574Z,5.1
2023-01-09T05:37:47.144Z,7.2
2023-01-09T05:38:55.617Z,7.2
2023-01-09T05:40:03.957Z,7.2
2023-01-09T05:41:12.626Z,5.2
2023-01-09T05:42:21.035Z,5.2
2023-01-09T05:43:29.479Z,5.2
2023-01-09T05:44:38.010Z,5.4
2023-01-09T05:45:46.497Z,5.4
2023-01-09T05:46:54.798Z,5.4
2023-01-09T05:48:03.574Z,5.5
2023-01-09T05:49:12.038Z,5.5
2023-01-09T05:50:20.610Z,5.5
2023-01-09T05:51:29.303Z,40.299999
2023-01-09T05:52:37.767Z,40.299999
2023-01-09T05:53:46.315Z,40.299999
2023-01-09T05:54:54.971Z,13.5
2023-01-09T05:56:03.407Z,13.5
2023-01-09T05:57:11.907Z,13.5
2023-01-09T05:58:20.692Z,5.1
2023-01-09T05:59:29.280Z,5.1
2023-01-09T06:00:37.957Z,5.1
2023-01-09T06:01:46.577Z,5
2023-01-09T06:02:55.034Z,5
2023-01-09T06:04:03.414Z,5
2023-01-09T06:05:12.069Z,4.9
2023-01-09T06:06:20.483Z,4.9
2023-01-09T06:07:28.858Z,4.9
2023-01-09T06:08:37.508Z,6.2
2023-01-09T06:09:45.957Z,6.2
2023-01-09T06:10:54.332Z,6.2
2023-01-09T06:12:02.909Z,4
2023-01-09T06:13:11.335Z,4
2023-01-09T06:14:19.755Z,4
2023-01-09T06:15:28.434Z,4.3
2023-01-09T06:16:36.786Z,4.3
2023-01-09T06:17:45.150Z,4.3
2023-01-09T06:18:53.757Z,5.9
2023-01-09T06:20:02.169Z,5.9
2023-01-09T06:21:10.527Z,5.9
2023-01-09T06:22:19.111Z,5.4
2023-01-09T06:23:27.484Z,5.4
2023-01-09T06:24:35.874Z,5.4
2023-01-09T06:25:44.446Z,3.7
2023-01-09T06:26:52.962Z,3.7
2023-01-09T06:28:01.829Z,3.7
2023-01-09T06:29:10.359Z,16.5
2023-01-09T06:30:18.814Z,16.5
2023-01-09T06:31:27.236Z,16.5
2023-01-09T06:32:35.795Z,11.5
2023-01-09T06:33:44.131Z,11.5
2023-01-09T06:34:52.498Z,11.5
2023-01-09T06:36:01.078Z,68.900002
2023-01-09T06:37:10.400Z,68.900002
2023-01-09T06:38:18.773Z,68.900002
2023-01-09T06:39:27.315Z,63.900002
2023-01-09T06:40:35.717Z,63.900002
2023-01-09T06:41:44.039Z,63.900002
2023-01-09T06:42:52.633Z,17.1
2023-01-09T06:44:01.008Z,17.1
2023-01-09T06:45:09.361Z,17.1
2023-01-09T06:46:17.976Z,7.4
2023-01-09T06:47:26.300Z,7.4
2023-01-09T06:48:34.622Z,7.4
2023-01-09T06:49:43.203Z,5.4
2023-01-09T06:50:51.573Z,5.4
2023-01-09T06:51:59.936Z,5.4
2023-01-09T06:53:08.556Z,4.5
2023-01-09T06:54:16.943Z,4.5
2023-01-09T06:55:25.303Z,4.5
2023-01-09T06:56:33.875Z,4.5
2023-01-09T06:57:42.215Z,4.5
2023-01-09T06:58:50.597Z,4.5
2023-01-09T06:59:59.178Z,3.4
2023-01-09T07:01:07.681Z,3.4
2023-01-09T07:02:16.112Z,3.4
2023-01-09T07:03:24.753Z,4.9
2023-01-09T07:04:33.175Z,4.9
2023-01-09T07:05:41.512Z,4.9
2023-01-09T07:06:50.124Z,5
2023-01-09T07:07:58.419Z,5
2023-01-09T07:09:06.791Z,5
2023-01-09T07:10:15.342Z,3.1
2023-01-09T07:11:23.697Z,3.1
2023-01-09T07:12:32.157Z,3.1
2023-01-09T07:13:40.762Z,5.5
2023-01-09T07:14:49.132Z,5.5
2023-01-09T07:15:57.498Z,5.5
2023-01-09T07:17:06.050Z,3.5
2023-01-09T07:18:14.474Z,3.5
2023-01-09T07:19:22.862Z,3.5
2023-01-09T07:20:31.381Z,2.5
2023-01-09T07:21:39.828Z,2.5
2023-01-09T07:22:48.249Z,2.5
2023-01-09T07:23:56.861Z,2.2
2023-01-09T07:25:05.216Z,2.2
2023-01-09T07:26:13.578Z,2.2
2023-01-09T07:27:22.195Z,2.6
2023-01-09T07:28:30.544Z,2.6
2023-01-09T07:29:38.933Z,2.6
2023-01-09T07:30:47.509Z,2.4
2023-01-09T07:31:55.845Z,2.4
2023-01-09T07:33:04.333Z,2.4
2023-01-09T07:34:12.821Z,3.2
2023-01-09T07:35:21.192Z,3.2
2023-01-09T07:36:29.556Z,3.2
2023-01-09T07:37:38.104Z,3.4
2023-01-09T07:38:46.462Z,3.4
2023-01-09T07:39:54.840Z,3.4
2023-01-09T07:41:03.419Z,1.4
2023-01-09T07:42:11.778Z,1.4
2023-01-09T07:43:20.154Z,1.4
2023-01-09T07:44:29.429Z,2
2023-01-09T07:45:37.798Z,2
2023-01-09T07:46:46.180Z,2
2023-01-09T07:47:54.772Z,1.3
2023-01-09T07:49:03.149Z,1.3
2023-01-09T07:50:11.505Z,1.3
2023-01-09T07:51:20.086Z,1.4
2023-01-09T07:52:28.422Z,1.4
2023-01-09T07:53:36.771Z,1.4
2023-01-09T07:54:45.431Z,0.7
2023-01-09T07:55:53.836Z,0.7
2023-01-09T07:57:02.203Z,0.7
2023-01-09T07:58:10.776Z,0.8
2023-01-09T07:59:19.156Z,0.8
2023-01-09T08:00:27.520Z,0.8
2023-01-09T08:01:36.352Z,0.7
2023-01-09T08:02:44.605Z,0.7
2023-01-09T08:03:52.875Z,0.7
2023-01-09T08:05:01.452Z,1.4
2023-01-09T08:06:09.845Z,1.4
2023-01-09T08:07:18.221Z,1.4
2023-01-09T08:08:26.753Z,0.7
2023-01-09T08:09:35.141Z,0.7
2023-01-09T08:10:43.500Z,0.7
2023-01-09T08:11:52.129Z,0.8
2023-01-09T08:13:00.511Z,0.8
2023-01-09T08:14:08.867Z,0.8
2023-01-09T08:15:17.435Z,1
2023-01-09T08:16:25.807Z,1
2023-01-09T08:17:34.224Z,1
2023-01-09T08:18:42.815Z,0.8
2023-01-09T08:19:51.179Z,0.8
2023-01-09T08:20:59.578Z,0.8
2023-01-09T08:22:08.183Z,0.5
2023-01-09T08:23:16.537Z,0.5
2023-01-09T08:24:24.962Z,0.5
2023-01-09T08:25:33.539Z,0.6
2023-01-09T08:26:41.916Z,0.6
2023-01-09T08:27:50.285Z,0.6
2023-01-09T08:28:58.894Z,1
2023-01-09T08:30:07.227Z,1
2023-01-09T08:31:15.668Z,1
2023-01-09T08:32:24.157Z,0.7
2023-01-09T08:33:32.535Z,0.7
2023-01-09T08:34:41.017Z,0.7
2023-01-09T08:35:49.664Z,0.9
2023-01-09T08:36:57.919Z,0.9
2023-01-09T08:38:06.354Z,0.9
2023-01-09T08:39:14.968Z,0.9
2023-01-09T08:40:23.367Z,0.9
2023-01-09T08:41:31.768Z,0.9
2023-01-09T08:42:40.340Z,0.8
2023-01-09T08:43:49.036Z,0.8
2023-01-09T08:45:00.170Z,0.8
2023-01-09T08:46:08.725Z,0.9
2023-01-09T08:47:17.082Z,0.9
2023-01-09T08:48:25.435Z,0.9
2023-01-09T08:49:33.989Z,0.6
2023-01-09T08:50:42.356Z,0.6
2023-01-09T08:51:50.727Z,0.6
2023-01-09T08:52:59.319Z,0.6
2023-01-09T08:54:07.681Z,0.6
2023-01-09T08:55:16.061Z,0.6
2023-01-09T08:56:24.694Z,0.5
2023-01-09T08:57:33.131Z,0.5
2023-01-09T08:58:41.494Z,0.5
2023-01-09T08:59:50.071Z,0.4
2023-01-09T09:00:58.396Z,0.4
2023-01-09T09:02:06.751Z,0.4
2023-01-09T09:03:15.355Z,0.7
2023-01-09T09:04:23.727Z,0.7
2023-01-09T09:05:32.064Z,0.7
2023-01-09T09:06:40.646Z,2.1
2023-01-09T09:07:49.034Z,2.1
2023-01-09T09:08:57.405Z,2.1
2023-01-09T09:10:05.991Z,0.8
2023-01-09T09:11:14.387Z,0.8
2023-01-09T09:12:22.697Z,0.8
2023-01-09T09:13:31.290Z,0.3
2023-01-09T09:14:39.650Z,0.3
2023-01-09T09:15:48.066Z,0.3
2023-01-09T09:16:56.596Z,0.6
2023-01-09T09:18:04.967Z,0.6
2023-01-09T09:19:13.326Z,0.6
2023-01-09T09:20:21.885Z,1.9
2023-01-09T09:21:30.246Z,1.9
2023-01-09T09:22:38.615Z,1.9
2023-01-09T09:23:47.163Z,0.6
2023-01-09T09:24:55.527Z,0.6
2023-01-09T09:26:03.923Z,0.6
2023-01-09T09:27:12.513Z,0.8
2023-01-09T09:28:20.822Z,0.8
2023-01-09T09:29:29.189Z,0.8
2023-01-09T09:30:37.746Z,1.8
2023-01-09T09:31:46.111Z,1.8
2023-01-09T09:32:54.480Z,1.8
2023-01-09T09:34:03.042Z,2.3
2023-01-09T09:35:11.454Z,2.3
2023-01-09T09:36:19.794Z,2.3
2023-01-09T09:37:28.363Z,4.5
2023-01-09T09:38:36.716Z,4.5
2023-01-09T09:39:45.140Z,4.5
2023-01-09T09:40:53.683Z,4.4
2023-01-09T09:42:02.064Z,4.4
2023-01-09T09:43:10.510Z,4.4
2023-01-09T09:44:19.034Z,0.5
2023-01-09T09:45:27.417Z,0.5
2023-01-09T09:46:35.823Z,0.5
2023-01-09T09:47:44.362Z,6.9
2023-01-09T09:48:52.725Z,6.9
2023-01-09T09:50:01.088Z,6.9
2023-01-09T09:51:09.646Z,3.8
2023-01-09T09:52:18.048Z,3.8
2023-01-09T09:53:26.396Z,3.8
2023-01-09T09:54:34.948Z,5.4
2023-01-09T09:55:43.314Z,5.4
2023-01-09T09:56:51.659Z,5.4
2023-01-09T09:58:00.243Z,4.6
2023-01-09T09:59:08.623Z,4.6
2023-01-09T10:00:16.941Z,4.6
2023-01-09T10:01:25.520Z,3.9
2023-01-09T10:02:33.907Z,3.9
2023-01-09T10:03:42.261Z,3.9
2023-01-09T10:04:50.800Z,2.4
2023-01-09T10:05:59.160Z,2.4
2023-01-09T10:07:07.545Z,2.4
2023-01-09T10:08:16.279Z,1.5
2023-01-09T10:09:24.529Z,1.5
2023-01-09T10:10:32.851Z,1.5
2023-01-09T10:11:41.415Z,2.1
2023-01-09T10:12:49.823Z,2.1
2023-01-09T10:13:58.188Z,2.1
2023-01-09T10:15:06.779Z,3.9
2023-01-09T10:16:15.166Z,3.9
2023-01-09T10:17:23.504Z,3.9
2023-01-09T10:18:32.052Z,2.5
2023-01-09T10:19:40.422Z,2.5
2023-01-09T10:20:48.750Z,2.5
2023-01-09T10:21:57.358Z,3
2023-01-09T10:23:05.698Z,3
2023-01-09T10:24:14.089Z,3
2023-01-09T10:25:22.654Z,3
2023-01-09T10:26:31.008Z,3
2023-01-09T10:27:39.356Z,3
2023-01-09T10:28:47.904Z,1.8
2023-01-09T10:29:56.271Z,1.8
2023-01-09T10:31:04.719Z,1.8
2023-01-09T10:32:13.200Z,2.7
2023-01-09T10:33:21.545Z,2.7
2023-01-09T10:34:29.959Z,2.7
2023-01-09T10:35:47.215Z,2.7
2023-01-09T10:36:46.969Z,2.7
2023-01-09T10:37:55.276Z,2.7
2023-01-09T10:39:03.901Z,1.3
2023-01-09T10:40:12.261Z,1.3
2023-01-09T10:41:20.633Z,1.3
2023-01-09T10:42:29.236Z,3
2023-01-09T10:43:37.585Z,3
2023-01-09T10:44:45.989Z,3
2023-01-09T10:45:54.768Z,1.4
2023-01-09T10:47:02.986Z,1.4
2023-01-09T10:48:11.288Z,1.4
2023-01-09T10:49:19.847Z,1.4
2023-01-09T10:50:28.180Z,1.4
2023-01-09T10:51:36.547Z,1.4
2023-01-09T10:52:45.128Z,1.7
2023-01-09T10:53:53.534Z,1.7
2023-01-09T10:55:01.968Z,1.7
2023-01-09T10:56:10.513Z,2.8
2023-01-09T10:57:18.906Z,2.8
2023-01-09T10:58:27.264Z,2.8
2023-01-09T10:59:35.853Z,4.1
2023-01-09T11:00:44.218Z,4.1
2023-01-09T11:01:52.619Z,4.1
2023-01-09T11:03:01.303Z,3
2023-01-09T11:04:09.642Z,3
2023-01-09T11:05:18.022Z,3
2023-01-09T11:06:26.614Z,3.1
2023-01-09T11:07:35.011Z,3.1
2023-01-09T11:08:43.404Z,3.1
2023-01-09T11:09:51.952Z,1.5
2023-01-09T11:11:00.348Z,1.5
2023-01-09T11:12:08.714Z,1.5
2023-01-09T11:13:17.269Z,1.9
2023-01-09T11:14:25.660Z,1.9
2023-01-09T11:15:34.050Z,1.9
2023-01-09T11:16:42.592Z,2
2023-01-09T11:17:51.011Z,2
2023-01-09T11:18:59.396Z,2
2023-01-09T11:20:07.925Z,3.1
2023-01-09T11:21:16.326Z,3.1
2023-01-09T11:22:24.676Z,3.1
2023-01-09T11:23:33.310Z,2.7
2023-01-09T11:24:41.694Z,2.7
2023-01-09T11:25:50.071Z,2.7
2023-01-09T11:26:58.647Z,1.9
2023-01-09T11:28:07.300Z,1.9
2023-01-09T11:29:15.489Z,1.9
2023-01-09T11:30:24.146Z,2.1
2023-01-09T11:31:32.688Z,2.1
2023-01-09T11:32:40.953Z,2.1
2023-01-09T11:33:49.541Z,1.8
2023-01-09T11:34:57.990Z,1.8
2023-01-09T11:36:06.321Z,1.8
2023-01-09T11:37:14.877Z,1.6
2023-01-09T11:38:23.227Z,1.6
2023-01-09T11:39:31.601Z,1.6
2023-01-09T11:40:40.159Z,2.7
2023-01-09T11:41:49.600Z,2.7
2023-01-09T11:42:56.994Z,2.7
2023-01-09T11:44:05.565Z,1
2023-01-09T11:45:13.950Z,1
2023-01-09T11:46:22.342Z,1
2023-01-09T11:47:30.879Z,1.4
2023-01-09T11:48:39.240Z,1.4
2023-01-09T11:49:48.786Z,1.4
2023-01-09T11:50:56.239Z,1.9
2023-01-09T11:52:04.563Z,1.9
2023-01-09T11:53:12.920Z,1.9
2023-01-09T11:54:21.503Z,1.4
2023-01-09T11:55:41.704Z,1.4
2023-01-09T11:56:38.236Z,1.4
2023-01-09T11:57:46.782Z,1.2
2023-01-09T11:58:55.124Z,1.2
2023-01-09T12:00:03.491Z,1.2
2023-01-09T12:01:12.048Z,1.8
2023-01-09T12:02:20.431Z,1.8
2023-01-09T12:03:28.847Z,1.8
2023-01-09T12:04:37.347Z,1.3
2023-01-09T12:05:45.756Z,1.3
2023-01-09T12:06:54.139Z,1.3
2023-01-09T12:08:02.722Z,2.4
2023-01-09T12:09:11.455Z,2.4
2023-01-09T12:10:19.836Z,2.4
2023-01-09T12:11:28.463Z,0.9
2023-01-09T12:12:36.810Z,0.9
2023-01-09T12:13:45.176Z,0.9
2023-01-09T12:14:53.819Z,1.3
2023-01-09T12:16:02.711Z,1.3
2023-01-09T12:17:11.820Z,1.3
2023-01-09T12:18:20.391Z,2.1
2023-01-09T12:19:28.749Z,2.1
2023-01-09T12:20:37.123Z,2.1
2023-01-09T12:21:45.714Z,0.9
2023-01-09T12:22:54.353Z,0.9
2023-01-09T12:24:03.471Z,0.9
2023-01-09T12:25:12.036Z,1.9
2023-01-09T12:26:20.411Z,1.9
2023-01-09T12:27:28.777Z,1.9
2023-01-09T12:28:37.338Z,1.4
2023-01-09T12:29:45.719Z,1.4
2023-01-09T12:30:54.125Z,1.4
2023-01-09T12:32:02.722Z,1
2023-01-09T12:33:11.068Z,1
2023-01-09T12:34:19.432Z,1
2023-01-09T12:35:28.005Z,1.6
2023-01-09T12:36:51.587Z,1.6
2023-01-09T12:38:00.007Z,1.6
2023-01-09T12:39:08.514Z,1.7
2023-01-09T12:40:16.890Z,1.7
2023-01-09T12:41:25.274Z,1.7
2023-01-09T12:42:33.839Z,2.5
2023-01-09T12:43:42.259Z,2.5
2023-01-09T12:44:50.632Z,2.5
2023-01-09T12:45:59.267Z,3.3
2023-01-09T12:47:07.669Z,3.3
2023-01-09T12:48:16.030Z,3.3
2023-01-09T12:49:24.656Z,1.5
2023-01-09T12:50:33.025Z,1.5
2023-01-09T12:51:41.389Z,1.5
2023-01-09T12:52:49.954Z,0.8
2023-01-09T12:53:58.469Z,0.8
2023-01-09T12:55:06.881Z,0.8
2023-01-09T12:56:15.501Z,1.7
2023-01-09T12:57:23.915Z,1.7
2023-01-09T12:58:32.246Z,1.7
2023-01-09T12:59:40.926Z,2.5
2023-01-09T13:00:49.345Z,2.5
2023-01-09T13:01:57.676Z,2.5
2023-01-09T13:03:12.340Z,0.6
2023-01-09T13:04:14.646Z,0.6
2023-01-09T13:05:23.052Z,0.6
2023-01-09T13:06:31.707Z,5.5
2023-01-09T13:07:40.096Z,5.5
2023-01-09T13:08:48.454Z,5.5
2023-01-09T13:09:57.043Z,1.7
2023-01-09T13:11:18.789Z,1.7
2023-01-09T13:12:13.755Z,1.7
2023-01-09T13:13:22.313Z,1.6
2023-01-09T13:14:30.676Z,1.6
2023-01-09T13:15:39.113Z,1.6
2023-01-09T13:16:47.881Z,1.2
2023-01-09T13:17:56.288Z,1.2
2023-01-09T13:19:04.654Z,1.2
2023-01-09T13:20:13.225Z,1.7
2023-01-09T13:21:21.653Z,1.7
2023-01-09T13:22:30.072Z,1.7
2023-01-09T13:23:38.685Z,1.5
2023-01-09T13:24:47.305Z,1.5
2023-01-09T13:25:55.678Z,1.5
2023-01-09T13:27:04.337Z,1.7
2023-01-09T13:28:12.779Z,1.7
2023-01-09T13:29:21.192Z,1.7
2023-01-09T13:30:29.822Z,0.7
2023-01-09T13:31:38.240Z,0.7
2023-01-09T13:32:46.548Z,0.7
2023-01-09T13:33:55.119Z,1.1
2023-01-09T13:35:03.512Z,1.1
2023-01-09T13:36:11.903Z,1.1
2023-01-09T13:37:20.461Z,2.2
2023-01-09T13:38:28.880Z,2.2
2023-01-09T13:39:37.235Z,2.2
2023-01-09T13:40:45.845Z,1.4
2023-01-09T13:41:54.247Z,1.4
2023-01-09T13:43:02.611Z,1.4
2023-01-09T13:44:11.173Z,1.5
2023-01-09T13:45:19.557Z,1.5
2023-01-09T13:46:27.910Z,1.5
2023-01-09T13:47:36.582Z,1
2023-01-09T13:48:44.912Z,1
2023-01-09T13:49:53.303Z,1
2023-01-09T13:51:01.910Z,1.5
2023-01-09T13:52:10.285Z,1.5
2023-01-09T13:53:18.714Z,1.5
2023-01-09T13:54:27.249Z,1.5
2023-01-09T13:55:35.744Z,1.5
2023-01-09T13:56:44.027Z,1.5
2023-01-09T13:57:52.666Z,1.4
2023-01-09T13:59:01.020Z,1.4
2023-01-09T14:00:09.364Z,1.4
2023-01-09T14:01:17.952Z,2.1
2023-01-09T14:02:26.396Z,2.1
2023-01-09T14:03:34.770Z,2.1
2023-01-09T14:04:43.386Z,2.2
2023-01-09T14:05:51.743Z,2.2
2023-01-09T14:07:00.194Z,2.2
2023-01-09T14:08:08.835Z,4.3
2023-01-09T14:09:17.180Z,4.3
2023-01-09T14:10:25.582Z,4.3
2023-01-09T14:11:34.137Z,12.5
2023-01-09T14:12:42.643Z,12.5
2023-01-09T14:13:51.024Z,12.5
2023-01-09T14:14:59.585Z,2.1
2023-01-09T14:16:08.025Z,2.1
2023-01-09T14:17:16.333Z,2.1
2023-01-09T14:18:24.924Z,1.6
2023-01-09T14:19:33.264Z,1.6
2023-01-09T14:20:41.662Z,1.6
2023-01-09T14:21:50.223Z,3.2
2023-01-09T14:23:12.963Z,3.2
2023-01-09T14:24:07.547Z,3.2
2023-01-09T14:25:15.551Z,3.6
2023-01-09T14:26:24.040Z,3.6
2023-01-09T14:27:32.394Z,3.6
2023-01-09T14:28:40.977Z,3.9
2023-01-09T14:29:49.382Z,3.9
2023-01-09T14:30:57.738Z,3.9
2023-01-09T15:04:21.761Z,0
2023-01-09T15:05:30.117Z,0
2023-01-09T15:06:38.569Z,0
2023-01-09T15:07:47.187Z,3.1
2023-01-09T15:08:55.597Z,3.1
2023-01-09T15:10:03.942Z,3.1
2023-01-09T15:11:12.554Z,2.2
2023-01-09T15:12:20.942Z,2.2
2023-01-09T15:13:29.318Z,2.2
2023-01-09T15:14:37.868Z,2.7
2023-01-09T15:15:46.275Z,2.7
2023-01-09T15:16:54.652Z,2.7
2023-01-09T15:18:03.231Z,1.5
2023-01-09T15:19:11.603Z,1.5
2023-01-09T15:20:20.035Z,1.5
2023-01-09T15:21:28.603Z,2.8
2023-01-09T15:22:36.963Z,2.8
2023-01-09T15:23:45.427Z,2.8
2023-01-09T15:24:53.994Z,2.6
2023-01-09T15:26:02.387Z,2.6
2023-01-09T15:27:10.804Z,2.6
2023-01-09T15:28:19.350Z,3.7
2023-01-09T15:29:27.700Z,3.7
2023-01-09T15:30:36.092Z,3.7
2023-01-09T15:31:44.729Z,3.7
2023-01-09T15:32:53.053Z,3.7
2023-01-09T15:34:01.501Z,3.7
2023-01-09T15:35:10.156Z,2.3
2023-01-09T15:36:18.522Z,2.3
2023-01-09T15:37:27.467Z,2.3
2023-01-09T15:38:36.058Z,4.7
2023-01-09T15:39:44.422Z,4.7
2023-01-09T15:40:52.811Z,4.7
2023-01-09T15:42:01.376Z,3.8
2023-01-09T15:43:09.769Z,3.8
2023-01-09T15:44:18.167Z,3.8
2023-01-09T15:45:26.767Z,4.5
2023-01-09T15:46:35.085Z,4.5
2023-01-09T15:47:43.474Z,4.5
2023-01-09T15:48:52.050Z,3.5
2023-01-09T15:50:00.621Z,3.5
2023-01-09T15:51:08.970Z,3.5
2023-01-09T15:52:17.594Z,2.4
2023-01-09T15:53:25.955Z,2.4
2023-01-09T15:54:34.357Z,2.4
2023-01-09T15:55:42.908Z,6.5
2023-01-09T15:56:51.302Z,6.5
2023-01-09T15:57:59.654Z,6.5
2023-01-09T15:59:08.219Z,5
2023-01-09T16:00:16.603Z,5
2023-01-09T16:01:25.060Z,5
2023-01-09T16:02:33.550Z,4.8
2023-01-09T16:03:41.925Z,4.8
2023-01-09T16:04:50.318Z,4.8
2023-01-09T16:05:58.864Z,4.6
2023-01-09T16:07:07.303Z,4.6
2023-01-09T16:08:15.761Z,4.6
2023-01-09T16:09:24.308Z,6.3
2023-01-09T16:10:32.672Z,6.3
2023-01-09T16:11:41.052Z,6.3
2023-01-09T16:12:49.618Z,4
2023-01-09T16:13:57.977Z,4
2023-01-09T16:15:06.345Z,4
2023-01-09T16:16:14.963Z,3.7
2023-01-09T16:17:23.271Z,3.7